Terminal Aerodrome Forecast
Issued by NWS Cleveland, OH

Home | Current Version | Previous Version | Graphics & Text | Print | Product List | Glossary Off
Versions: 1 2 3 4 5 6 7 8 9 10 11 12 13 14 15 16

556
FTUS41 KCLE 291031 AAB
TAFMFD
TAF AMD
KMFD 291031Z 2911/3006 VRB03KT 6SM BR SCT005
      TEMPO 2911/2913 5SM BR
     FM291400 06004KT P6SM BKN025
     FM291700 05005KT P6SM BKN035
     FM291900 36004KT P6SM VCTS BKN045CB
     FM300000 VRB03KT P6SM SCT060 OVC100=

USA.gov is the U.S. government's official web portal to all federal, state and local government web resources and services.